sensor_id;sensor_type;location;lat;lon;timestamp;P1;durP1;ratioP1;P2;durP2;ratioP2
15488;SDS011;7846;48.830;9.116;2023-02-15T00:01:09;42.20;;;25.33;;
15488;SDS011;7846;48.830;9.116;2023-02-15T00:03:37;41.00;;;24.67;;
15488;SDS011;7846;48.830;9.116;2023-02-15T00:06:03;38.10;;;23.73;;
15488;SDS011;7846;48.830;9.116;2023-02-15T00:08:30;39.80;;;24.47;;
15488;SDS011;7846;48.830;9.116;2023-02-15T00:11:08;39.63;;;24.10;;
15488;SDS011;7846;48.830;9.116;2023-02-15T00:13:35;38.70;;;24.67;;
15488;SDS011;7846;48.830;9.116;2023-02-15T00:16:05;38.90;;;24.33;;
15488;SDS011;7846;48.830;9.116;2023-02-15T00:18:32;40.40;;;24.23;;
15488;SDS011;7846;48.830;9.116;2023-02-15T00:21:02;47.67;;;25.90;;
15488;SDS011;7846;48.830;9.116;2023-02-15T00:23:29;39.40;;;25.03;;
15488;SDS011;7846;48.830;9.116;2023-02-15T00:26:08;48.27;;;26.20;;
15488;SDS011;7846;48.830;9.116;2023-02-15T00:28:35;48.00;;;25.80;;
15488;SDS011;7846;48.830;9.116;2023-02-15T00:33:30;40.30;;;24.57;;
15488;SDS011;7846;48.830;9.116;2023-02-15T00:35:59;43.23;;;25.37;;
15488;SDS011;7846;48.830;9.116;2023-02-15T00:38:27;39.87;;;24.57;;
15488;SDS011;7846;48.830;9.116;2023-02-15T00:40:53;42.97;;;24.63;;
15488;SDS011;7846;48.830;9.116;2023-02-15T00:43:20;40.10;;;24.60;;
15488;SDS011;7846;48.830;9.116;2023-02-15T00:45:46;39.03;;;24.70;;
15488;SDS011;7846;48.830;9.116;2023-02-15T00:48:11;39.23;;;24.23;;
15488;SDS011;7846;48.830;9.116;2023-02-15T00:50:37;45.57;;;24.60;;
15488;SDS011;7846;48.830;9.116;2023-02-15T00:53:04;41.27;;;25.23;;
15488;SDS011;7846;48.830;9.116;2023-02-15T00:55:32;39.77;;;24.67;;
15488;SDS011;7846;48.830;9.116;2023-02-15T00:57:58;36.10;;;23.43;;
15488;SDS011;7846;48.830;9.116;2023-02-15T01:00:23;37.10;;;23.93;;
15488;SDS011;7846;48.830;9.116;2023-02-15T01:02:49;33.03;;;23.03;;
15488;SDS011;7846;48.830;9.116;2023-02-15T01:05:15;35.97;;;22.90;;
15488;SDS011;7846;48.830;9.116;2023-02-15T01:07:40;33.40;;;22.30;;
15488;SDS011;7846;48.830;9.116;2023-02-15T01:10:06;36.07;;;23.33;;
15488;SDS011;7846;48.830;9.116;2023-02-15T01:12:32;35.07;;;23.33;;
15488;SDS011;7846;48.830;9.116;2023-02-15T01:14:57;33.73;;;21.80;;
15488;SDS011;7846;48.830;9.116;2023-02-15T01:17:24;34.73;;;22.90;;
15488;SDS011;7846;48.830;9.116;2023-02-15T01:19:49;34.57;;;22.77;;
15488;SDS011;7846;48.830;9.116;2023-02-15T01:22:16;36.77;;;22.90;;
15488;SDS011;7846;48.830;9.116;2023-02-15T01:24:43;40.20;;;23.80;;
15488;SDS011;7846;48.830;9.116;2023-02-15T01:27:09;34.57;;;23.17;;
15488;SDS011;7846;48.830;9.116;2023-02-15T01:29:35;38.07;;;23.33;;
15488;SDS011;7846;48.830;9.116;2023-02-15T01:32:01;36.33;;;22.67;;
15488;SDS011;7846;48.830;9.116;2023-02-15T01:34:28;34.83;;;22.60;;
15488;SDS011;7846;48.830;9.116;2023-02-15T01:36:55;37.03;;;22.57;;
15488;SDS011;7846;48.830;9.116;2023-02-15T01:39:20;34.70;;;22.27;;
15488;SDS011;7846;48.830;9.116;2023-02-15T01:41:46;37.77;;;23.20;;
15488;SDS011;7846;48.830;9.116;2023-02-15T01:47:24;33.60;;;20.80;;
15488;SDS011;7846;48.830;9.116;2023-02-15T01:50:00;34.30;;;21.77;;
15488;SDS011;7846;48.830;9.116;2023-02-15T01:52:32;35.83;;;22.40;;
15488;SDS011;7846;48.830;9.116;2023-02-15T01:55:00;36.93;;;23.17;;
15488;SDS011;7846;48.830;9.116;2023-02-15T01:57:25;37.73;;;23.97;;
15488;SDS011;7846;48.830;9.116;2023-02-15T01:59:53;38.00;;;24.07;;
15488;SDS011;7846;48.830;9.116;2023-02-15T02:02:24;35.87;;;22.63;;
15488;SDS011;7846;48.830;9.116;2023-02-15T02:04:51;36.80;;;22.93;;
15488;SDS011;7846;48.830;9.116;2023-02-15T02:07:22;37.83;;;23.17;;
15488;SDS011;7846;48.830;9.116;2023-02-15T02:09:52;38.60;;;23.17;;
15488;SDS011;7846;48.830;9.116;2023-02-15T02:12:17;38.37;;;23.70;;
15488;SDS011;7846;48.830;9.116;2023-02-15T02:14:45;41.63;;;22.80;;
15488;SDS011;7846;48.830;9.116;2023-02-15T02:20:01;33.20;;;21.70;;
15488;SDS011;7846;48.830;9.116;2023-02-15T02:22:41;35.53;;;21.30;;
15488;SDS011;7846;48.830;9.116;2023-02-15T02:42:27;29.93;;;18.37;;
15488;SDS011;7846;48.830;9.116;2023-02-15T02:45:05;64.17;;;21.37;;
15488;SDS011;7846;48.830;9.116;2023-02-15T02:47:47;139.27;;;22.73;;
15488;SDS011;7846;48.830;9.116;2023-02-15T02:50:26;92.33;;;20.47;;
15488;SDS011;7846;48.830;9.116;2023-02-15T02:52:54;73.83;;;20.87;;
15488;SDS011;7846;48.830;9.116;2023-02-15T03:00:50;87.10;;;20.90;;
15488;SDS011;7846;48.830;9.116;2023-02-15T03:03:24;143.90;;;22.03;;
15488;SDS011;7846;48.830;9.116;2023-02-15T03:05:54;105.43;;;22.40;;
15488;SDS011;7846;48.830;9.116;2023-02-15T03:08:22;147.57;;;21.70;;
15488;SDS011;7846;48.830;9.116;2023-02-15T03:10:53;94.30;;;22.07;;
15488;SDS011;7846;48.830;9.116;2023-02-15T03:13:22;108.80;;;21.43;;
15488;SDS011;7846;48.830;9.116;2023-02-15T03:15:48;136.47;;;21.70;;
15488;SDS011;7846;48.830;9.116;2023-02-15T03:18:36;105.00;;;19.50;;
15488;SDS011;7846;48.830;9.116;2023-02-15T03:21:06;161.37;;;21.83;;
15488;SDS011;7846;48.830;9.116;2023-02-15T03:23:33;131.67;;;21.53;;
15488;SDS011;7846;48.830;9.116;2023-02-15T03:26:04;210.00;;;23.23;;
15488;SDS011;7846;48.830;9.116;2023-02-15T03:28:38;335.27;;;26.77;;
15488;SDS011;7846;48.830;9.116;2023-02-15T03:31:07;257.93;;;24.67;;
15488;SDS011;7846;48.830;9.116;2023-02-15T03:33:36;197.17;;;24.47;;
15488;SDS011;7846;48.830;9.116;2023-02-15T03:41:32;229.80;;;23.13;;
15488;SDS011;7846;48.830;9.116;2023-02-15T03:47:15;308.33;;;27.03;;
15488;SDS011;7846;48.830;9.116;2023-02-15T03:49:47;393.33;;;30.10;;
15488;SDS011;7846;48.830;9.116;2023-02-15T03:52:18;373.47;;;31.87;;
15488;SDS011;7846;48.830;9.116;2023-02-15T03:54:46;176.10;;;24.97;;
15488;SDS011;7846;48.830;9.116;2023-02-15T03:57:19;214.53;;;27.00;;
15488;SDS011;7846;48.830;9.116;2023-02-15T04:00:09;182.23;;;24.13;;
15488;SDS011;7846;48.830;9.116;2023-02-15T04:05:42;76.13;;;20.53;;
15488;SDS011;7846;48.830;9.116;2023-02-15T04:08:08;524.90;;;29.13;;
15488;SDS011;7846;48.830;9.116;2023-02-15T04:10:34;259.20;;;26.37;;
15488;SDS011;7846;48.830;9.116;2023-02-15T04:13:29;115.10;;;21.67;;
15488;SDS011;7846;48.830;9.116;2023-02-15T04:15:56;128.37;;;21.53;;
15488;SDS011;7846;48.830;9.116;2023-02-15T04:18:27;164.20;;;24.00;;
15488;SDS011;7846;48.830;9.116;2023-02-15T04:21:12;107.60;;;19.37;;
15488;SDS011;7846;48.830;9.116;2023-02-15T04:23:56;178.37;;;22.80;;
15488;SDS011;7846;48.830;9.116;2023-02-15T04:26:39;360.37;;;28.40;;
15488;SDS011;7846;48.830;9.116;2023-02-15T04:29:05;262.37;;;28.80;;
15488;SDS011;7846;48.830;9.116;2023-02-15T04:31:31;185.30;;;25.20;;
15488;SDS011;7846;48.830;9.116;2023-02-15T04:33:56;320.33;;;28.57;;
15488;SDS011;7846;48.830;9.116;2023-02-15T04:36:22;391.00;;;27.80;;
15488;SDS011;7846;48.830;9.116;2023-02-15T04:38:47;329.27;;;27.87;;
15488;SDS011;7846;48.830;9.116;2023-02-15T04:41:15;178.57;;;25.83;;
15488;SDS011;7846;48.830;9.116;2023-02-15T04:43:40;219.17;;;26.23;;
15488;SDS011;7846;48.830;9.116;2023-02-15T04:46:06;139.70;;;23.83;;
15488;SDS011;7846;48.830;9.116;2023-02-15T04:48:33;202.87;;;25.93;;
15488;SDS011;7846;48.830;9.116;2023-02-15T04:50:58;140.87;;;24.47;;
15488;SDS011;7846;48.830;9.116;2023-02-15T04:53:24;198.83;;;25.90;;
15488;SDS011;7846;48.830;9.116;2023-02-15T04:55:49;289.87;;;25.87;;
15488;SDS011;7846;48.830;9.116;2023-02-15T04:58:15;168.23;;;23.43;;
15488;SDS011;7846;48.830;9.116;2023-02-15T05:00:41;294.20;;;27.10;;
15488;SDS011;7846;48.830;9.116;2023-02-15T05:03:06;162.07;;;22.37;;
15488;SDS011;7846;48.830;9.116;2023-02-15T05:05:31;166.23;;;23.90;;
15488;SDS011;7846;48.830;9.116;2023-02-15T05:07:57;231.90;;;23.57;;
15488;SDS011;7846;48.830;9.116;2023-02-15T05:10:23;184.90;;;24.13;;
15488;SDS011;7846;48.830;9.116;2023-02-15T05:12:49;146.67;;;22.87;;
15488;SDS011;7846;48.830;9.116;2023-02-15T05:15:14;191.80;;;24.10;;
15488;SDS011;7846;48.830;9.116;2023-02-15T05:17:40;243.03;;;24.73;;
15488;SDS011;7846;48.830;9.116;2023-02-15T05:20:06;129.80;;;25.00;;
15488;SDS011;7846;48.830;9.116;2023-02-15T05:22:33;167.93;;;24.40;;
15488;SDS011;7846;48.830;9.116;2023-02-15T05:24:58;277.07;;;27.37;;
15488;SDS011;7846;48.830;9.116;2023-02-15T05:27:43;273.83;;;27.27;;
15488;SDS011;7846;48.830;9.116;2023-02-15T05:30:27;134.57;;;21.07;;
15488;SDS011;7846;48.830;9.116;2023-02-15T05:32:52;259.60;;;25.27;;
15488;SDS011;7846;48.830;9.116;2023-02-15T05:35:19;107.43;;;21.80;;
15488;SDS011;7846;48.830;9.116;2023-02-15T05:37:44;161.77;;;22.13;;
15488;SDS011;7846;48.830;9.116;2023-02-15T05:40:10;159.67;;;22.67;;
15488;SDS011;7846;48.830;9.116;2023-02-15T05:42:35;280.27;;;25.50;;
15488;SDS011;7846;48.830;9.116;2023-02-15T05:45:02;278.67;;;26.93;;
15488;SDS011;7846;48.830;9.116;2023-02-15T05:47:28;346.13;;;28.43;;
15488;SDS011;7846;48.830;9.116;2023-02-15T05:49:55;217.63;;;24.63;;
15488;SDS011;7846;48.830;9.116;2023-02-15T05:52:20;196.80;;;25.33;;
15488;SDS011;7846;48.830;9.116;2023-02-15T05:54:45;342.97;;;30.43;;
15488;SDS011;7846;48.830;9.116;2023-02-15T05:57:12;204.83;;;28.97;;
15488;SDS011;7846;48.830;9.116;2023-02-15T05:59:37;375.33;;;31.97;;
15488;SDS011;7846;48.830;9.116;2023-02-15T06:02:03;451.87;;;32.37;;
15488;SDS011;7846;48.830;9.116;2023-02-15T06:04:31;224.10;;;28.53;;
15488;SDS011;7846;48.830;9.116;2023-02-15T06:06:56;161.30;;;25.93;;
15488;SDS011;7846;48.830;9.116;2023-02-15T06:09:22;213.57;;;26.03;;
15488;SDS011;7846;48.830;9.116;2023-02-15T06:11:47;195.73;;;26.53;;
15488;SDS011;7846;48.830;9.116;2023-02-15T06:14:12;75.97;;;22.03;;
15488;SDS011;7846;48.830;9.116;2023-02-15T06:16:38;114.17;;;25.67;;
15488;SDS011;7846;48.830;9.116;2023-02-15T06:19:03;144.83;;;25.77;;
15488;SDS011;7846;48.830;9.116;2023-02-15T06:21:30;159.83;;;29.00;;
15488;SDS011;7846;48.830;9.116;2023-02-15T06:23:56;207.70;;;25.03;;
15488;SDS011;7846;48.830;9.116;2023-02-15T06:26:21;198.63;;;25.37;;
15488;SDS011;7846;48.830;9.116;2023-02-15T06:28:47;183.40;;;25.10;;
15488;SDS011;7846;48.830;9.116;2023-02-15T06:31:12;126.20;;;24.77;;
15488;SDS011;7846;48.830;9.116;2023-02-15T06:33:38;84.83;;;22.67;;
15488;SDS011;7846;48.830;9.116;2023-02-15T06:36:03;148.43;;;23.20;;
15488;SDS011;7846;48.830;9.116;2023-02-15T06:38:29;306.07;;;28.27;;
15488;SDS011;7846;48.830;9.116;2023-02-15T06:40:54;221.17;;;25.63;;
15488;SDS011;7846;48.830;9.116;2023-02-15T06:43:20;160.97;;;24.07;;
15488;SDS011;7846;48.830;9.116;2023-02-15T06:45:47;314.97;;;27.20;;
15488;SDS011;7846;48.830;9.116;2023-02-15T06:48:12;193.90;;;26.43;;
15488;SDS011;7846;48.830;9.116;2023-02-15T06:50:37;217.57;;;23.77;;
15488;SDS011;7846;48.830;9.116;2023-02-15T06:53:03;296.33;;;27.07;;
15488;SDS011;7846;48.830;9.116;2023-02-15T06:55:29;251.17;;;27.53;;
15488;SDS011;7846;48.830;9.116;2023-02-15T06:57:54;201.97;;;23.20;;
15488;SDS011;7846;48.830;9.116;2023-02-15T07:00:20;102.37;;;22.93;;
15488;SDS011;7846;48.830;9.116;2023-02-15T07:02:47;172.83;;;25.37;;
15488;SDS011;7846;48.830;9.116;2023-02-15T07:05:12;146.93;;;23.17;;
15488;SDS011;7846;48.830;9.116;2023-02-15T07:07:39;126.00;;;22.50;;
15488;SDS011;7846;48.830;9.116;2023-02-15T07:10:05;126.53;;;21.83;;
15488;SDS011;7846;48.830;9.116;2023-02-15T07:12:31;139.97;;;22.90;;
15488;SDS011;7846;48.830;9.116;2023-02-15T07:15:10;96.43;;;20.00;;
15488;SDS011;7846;48.830;9.116;2023-02-15T07:17:37;121.23;;;21.73;;
15488;SDS011;7846;48.830;9.116;2023-02-15T07:20:04;129.93;;;23.33;;
15488;SDS011;7846;48.830;9.116;2023-02-15T07:22:30;119.63;;;23.07;;
15488;SDS011;7846;48.830;9.116;2023-02-15T07:24:56;207.80;;;25.00;;
15488;SDS011;7846;48.830;9.116;2023-02-15T07:27:22;177.40;;;25.30;;
15488;SDS011;7846;48.830;9.116;2023-02-15T07:29:47;298.43;;;25.20;;
15488;SDS011;7846;48.830;9.116;2023-02-15T07:32:12;185.53;;;23.13;;
15488;SDS011;7846;48.830;9.116;2023-02-15T07:34:39;197.73;;;23.17;;
15488;SDS011;7846;48.830;9.116;2023-02-15T07:37:05;117.37;;;22.10;;
15488;SDS011;7846;48.830;9.116;2023-02-15T07:39:30;122.87;;;22.20;;
15488;SDS011;7846;48.830;9.116;2023-02-15T07:41:56;84.87;;;22.17;;
15488;SDS011;7846;48.830;9.116;2023-02-15T07:44:21;151.20;;;22.17;;
15488;SDS011;7846;48.830;9.116;2023-02-15T07:46:46;168.83;;;22.17;;
15488;SDS011;7846;48.830;9.116;2023-02-15T07:49:13;207.80;;;23.77;;
15488;SDS011;7846;48.830;9.116;2023-02-15T07:51:39;154.63;;;22.97;;
15488;SDS011;7846;48.830;9.116;2023-02-15T07:54:06;114.80;;;22.33;;
15488;SDS011;7846;48.830;9.116;2023-02-15T07:56:31;184.93;;;23.90;;
15488;SDS011;7846;48.830;9.116;2023-02-15T07:58:57;229.73;;;24.30;;
15488;SDS011;7846;48.830;9.116;2023-02-15T08:01:27;112.80;;;22.53;;
15488;SDS011;7846;48.830;9.116;2023-02-15T08:03:55;103.80;;;21.03;;
15488;SDS011;7846;48.830;9.116;2023-02-15T08:06:21;90.47;;;18.93;;
15488;SDS011;7846;48.830;9.116;2023-02-15T08:08:49;95.20;;;19.30;;
15488;SDS011;7846;48.830;9.116;2023-02-15T08:11:16;109.87;;;18.37;;
15488;SDS011;7846;48.830;9.116;2023-02-15T08:14:08;135.40;;;21.00;;
15488;SDS011;7846;48.830;9.116;2023-02-15T08:16:39;184.33;;;22.43;;
15488;SDS011;7846;48.830;9.116;2023-02-15T08:22:04;397.60;;;27.70;;
15488;SDS011;7846;48.830;9.116;2023-02-15T08:24:32;144.63;;;22.37;;
15488;SDS011;7846;48.830;9.116;2023-02-15T08:26:59;184.27;;;20.77;;
15488;SDS011;7846;48.830;9.116;2023-02-15T08:29:27;139.00;;;21.63;;
15488;SDS011;7846;48.830;9.116;2023-02-15T08:31:54;116.63;;;21.03;;
15488;SDS011;7846;48.830;9.116;2023-02-15T08:34:27;335.87;;;26.27;;
15488;SDS011;7846;48.830;9.116;2023-02-15T08:36:53;134.50;;;20.77;;
15488;SDS011;7846;48.830;9.116;2023-02-15T08:39:18;79.63;;;19.97;;
15488;SDS011;7846;48.830;9.116;2023-02-15T08:41:46;185.43;;;22.17;;
15488;SDS011;7846;48.830;9.116;2023-02-15T08:44:12;195.90;;;21.67;;
15488;SDS011;7846;48.830;9.116;2023-02-15T08:46:39;135.67;;;21.27;;
15488;SDS011;7846;48.830;9.116;2023-02-15T08:49:06;65.13;;;17.73;;
15488;SDS011;7846;48.830;9.116;2023-02-15T08:51:34;112.73;;;19.90;;
15488;SDS011;7846;48.830;9.116;2023-02-15T08:54:03;224.47;;;23.17;;
15488;SDS011;7846;48.830;9.116;2023-02-15T08:56:34;74.07;;;19.33;;
15488;SDS011;7846;48.830;9.116;2023-02-15T08:59:02;126.97;;;21.50;;
15488;SDS011;7846;48.830;9.116;2023-02-15T09:01:29;121.17;;;22.20;;
15488;SDS011;7846;48.830;9.116;2023-02-15T09:03:56;122.13;;;23.90;;
15488;SDS011;7846;48.830;9.116;2023-02-15T09:06:24;171.30;;;23.87;;
15488;SDS011;7846;48.830;9.116;2023-02-15T09:08:50;130.13;;;22.13;;
15488;SDS011;7846;48.830;9.116;2023-02-15T09:11:22;132.37;;;22.73;;
15488;SDS011;7846;48.830;9.116;2023-02-15T09:13:53;103.87;;;21.33;;
15488;SDS011;7846;48.830;9.116;2023-02-15T09:16:27;117.57;;;23.33;;
15488;SDS011;7846;48.830;9.116;2023-02-15T09:18:54;106.10;;;21.93;;
15488;SDS011;7846;48.830;9.116;2023-02-15T09:21:22;52.27;;;21.60;;
15488;SDS011;7846;48.830;9.116;2023-02-15T09:23:51;61.77;;;22.10;;
15488;SDS011;7846;48.830;9.116;2023-02-15T09:26:20;44.30;;;21.63;;
15488;SDS011;7846;48.830;9.116;2023-02-15T09:28:51;40.03;;;21.93;;
15488;SDS011;7846;48.830;9.116;2023-02-15T09:31:18;40.33;;;22.10;;
15488;SDS011;7846;48.830;9.116;2023-02-15T09:33:47;39.13;;;20.47;;
15488;SDS011;7846;48.830;9.116;2023-02-15T09:39:06;34.27;;;21.73;;
15488;SDS011;7846;48.830;9.116;2023-02-15T09:58:21;35.00;;;22.67;;
15488;SDS011;7846;48.830;9.116;2023-02-15T10:00:58;31.03;;;22.07;;
15488;SDS011;7846;48.830;9.116;2023-02-15T10:09:11;28.93;;;21.23;;
15488;SDS011;7846;48.830;9.116;2023-02-15T10:15:23;27.30;;;20.70;;
15488;SDS011;7846;48.830;9.116;2023-02-15T10:18:11;27.47;;;21.17;;
15488;SDS011;7846;48.830;9.116;2023-02-15T10:21:01;26.20;;;19.93;;
15488;SDS011;7846;48.830;9.116;2023-02-15T10:23:50;27.20;;;20.77;;
15488;SDS011;7846;48.830;9.116;2023-02-15T10:29:23;26.13;;;20.93;;
15488;SDS011;7846;48.830;9.116;2023-02-15T10:32:13;29.60;;;21.20;;
15488;SDS011;7846;48.830;9.116;2023-02-15T10:35:12;24.37;;;20.30;;
15488;SDS011;7846;48.830;9.116;2023-02-15T10:43:35;25.50;;;20.83;;
15488;SDS011;7846;48.830;9.116;2023-02-15T10:46:21;25.93;;;20.37;;
15488;SDS011;7846;48.830;9.116;2023-02-15T10:51:45;27.77;;;20.23;;
15488;SDS011;7846;48.830;9.116;2023-02-15T10:54:26;24.07;;;18.93;;
15488;SDS011;7846;48.830;9.116;2023-02-15T11:00:12;36.43;;;20.77;;
15488;SDS011;7846;48.830;9.116;2023-02-15T11:08:29;29.47;;;20.33;;
15488;SDS011;7846;48.830;9.116;2023-02-15T11:11:00;27.00;;;20.40;;
15488;SDS011;7846;48.830;9.116;2023-02-15T11:13:33;26.47;;;19.93;;
15488;SDS011;7846;48.830;9.116;2023-02-15T11:18:33;26.70;;;19.43;;
15488;SDS011;7846;48.830;9.116;2023-02-15T11:23:57;25.13;;;20.23;;
15488;SDS011;7846;48.830;9.116;2023-02-15T11:26:36;26.40;;;19.67;;
15488;SDS011;7846;48.830;9.116;2023-02-15T11:29:13;23.37;;;18.60;;
15488;SDS011;7846;48.830;9.116;2023-02-15T11:31:49;31.47;;;19.97;;
15488;SDS011;7846;48.830;9.116;2023-02-15T11:34:20;25.40;;;19.47;;
15488;SDS011;7846;48.830;9.116;2023-02-15T11:36:54;25.23;;;19.40;;
15488;SDS011;7846;48.830;9.116;2023-02-15T11:39:24;26.13;;;19.53;;
15488;SDS011;7846;48.830;9.116;2023-02-15T11:41:54;23.37;;;19.10;;
15488;SDS011;7846;48.830;9.116;2023-02-15T11:44:36;20.50;;;17.50;;
15488;SDS011;7846;48.830;9.116;2023-02-15T11:47:10;27.13;;;19.47;;
15488;SDS011;7846;48.830;9.116;2023-02-15T11:49:36;30.27;;;20.00;;
15488;SDS011;7846;48.830;9.116;2023-02-15T11:52:05;25.23;;;19.07;;
15488;SDS011;7846;48.830;9.116;2023-02-15T11:54:41;25.43;;;19.80;;
15488;SDS011;7846;48.830;9.116;2023-02-15T11:57:14;23.93;;;18.63;;
15488;SDS011;7846;48.830;9.116;2023-02-15T11:59:56;26.70;;;18.80;;
15488;SDS011;7846;48.830;9.116;2023-02-15T12:02:28;22.70;;;18.90;;
15488;SDS011;7846;48.830;9.116;2023-02-15T12:05:01;23.67;;;17.57;;
15488;SDS011;7846;48.830;9.116;2023-02-15T12:07:34;24.97;;;18.87;;
15488;SDS011;7846;48.830;9.116;2023-02-15T12:12:56;23.17;;;18.10;;
15488;SDS011;7846;48.830;9.116;2023-02-15T12:15:34;21.40;;;17.53;;
15488;SDS011;7846;48.830;9.116;2023-02-15T12:18:02;22.90;;;19.10;;
15488;SDS011;7846;48.830;9.116;2023-02-15T12:20:29;20.53;;;17.37;;
15488;SDS011;7846;48.830;9.116;2023-02-15T12:23:01;23.67;;;19.13;;
15488;SDS011;7846;48.830;9.116;2023-02-15T12:25:42;21.33;;;18.30;;
15488;SDS011;7846;48.830;9.116;2023-02-15T12:28:28;20.40;;;18.20;;
15488;SDS011;7846;48.830;9.116;2023-02-15T12:30:58;22.37;;;17.33;;
15488;SDS011;7846;48.830;9.116;2023-02-15T12:33:28;20.97;;;18.23;;
15488;SDS011;7846;48.830;9.116;2023-02-15T12:35:57;24.23;;;18.27;;
15488;SDS011;7846;48.830;9.116;2023-02-15T12:38:27;22.50;;;17.80;;
15488;SDS011;7846;48.830;9.116;2023-02-15T12:41:03;22.10;;;17.47;;
15488;SDS011;7846;48.830;9.116;2023-02-15T12:43:47;20.80;;;17.70;;
15488;SDS011;7846;48.830;9.116;2023-02-15T12:46:27;20.77;;;18.40;;
15488;SDS011;7846;48.830;9.116;2023-02-15T12:51:43;21.50;;;17.87;;
15488;SDS011;7846;48.830;9.116;2023-02-15T12:56:48;23.80;;;17.57;;
15488;SDS011;7846;48.830;9.116;2023-02-15T12:59:14;20.23;;;17.30;;
15488;SDS011;7846;48.830;9.116;2023-02-15T13:01:45;22.20;;;16.60;;
15488;SDS011;7846;48.830;9.116;2023-02-15T13:06:49;21.77;;;18.27;;
15488;SDS011;7846;48.830;9.116;2023-02-15T13:11:50;20.17;;;17.87;;
15488;SDS011;7846;48.830;9.116;2023-02-15T13:14:16;18.83;;;16.80;;
15488;SDS011;7846;48.830;9.116;2023-02-15T13:16:44;21.30;;;18.73;;
15488;SDS011;7846;48.830;9.116;2023-02-15T13:19:15;20.43;;;18.30;;
15488;SDS011;7846;48.830;9.116;2023-02-15T13:21:44;21.40;;;18.03;;
15488;SDS011;7846;48.830;9.116;2023-02-15T13:24:23;20.63;;;17.10;;
15488;SDS011;7846;48.830;9.116;2023-02-15T13:26:52;19.90;;;17.80;;
15488;SDS011;7846;48.830;9.116;2023-02-15T13:29:21;22.10;;;17.50;;
15488;SDS011;7846;48.830;9.116;2023-02-15T13:31:50;20.13;;;18.10;;
15488;SDS011;7846;48.830;9.116;2023-02-15T13:34:31;20.00;;;17.80;;
15488;SDS011;7846;48.830;9.116;2023-02-15T13:39:39;22.87;;;19.27;;
15488;SDS011;7846;48.830;9.116;2023-02-15T13:53:18;20.20;;;18.13;;
15488;SDS011;7846;48.830;9.116;2023-02-15T13:55:54;20.73;;;18.60;;
15488;SDS011;7846;48.830;9.116;2023-02-15T13:58:40;21.83;;;18.37;;
15488;SDS011;7846;48.830;9.116;2023-02-15T14:01:45;21.03;;;18.37;;
15488;SDS011;7846;48.830;9.116;2023-02-15T14:04:25;20.07;;;17.97;;
15488;SDS011;7846;48.830;9.116;2023-02-15T14:07:10;19.90;;;17.97;;
15488;SDS011;7846;48.830;9.116;2023-02-15T14:13:13;19.80;;;17.80;;
15488;SDS011;7846;48.830;9.116;2023-02-15T14:15:51;20.93;;;17.67;;
15488;SDS011;7846;48.830;9.116;2023-02-15T14:18:36;18.77;;;16.87;;
15488;SDS011;7846;48.830;9.116;2023-02-15T14:21:14;19.83;;;17.87;;
15488;SDS011;7846;48.830;9.116;2023-02-15T14:29:16;19.63;;;17.27;;
15488;SDS011;7846;48.830;9.116;2023-02-15T14:31:54;18.13;;;16.43;;
15488;SDS011;7846;48.830;9.116;2023-02-15T14:34:30;19.20;;;17.20;;
15488;SDS011;7846;48.830;9.116;2023-02-15T14:37:08;19.67;;;17.07;;
15488;SDS011;7846;48.830;9.116;2023-02-15T14:42:33;18.53;;;15.20;;
15488;SDS011;7846;48.830;9.116;2023-02-15T14:47:36;17.97;;;16.13;;
15488;SDS011;7846;48.830;9.116;2023-02-15T14:50:35;20.37;;;15.53;;
15488;SDS011;7846;48.830;9.116;2023-02-15T14:58:36;17.03;;;15.33;;
15488;SDS011;7846;48.830;9.116;2023-02-15T15:01:06;18.27;;;14.40;;
15488;SDS011;7846;48.830;9.116;2023-02-15T15:03:34;17.60;;;15.53;;
15488;SDS011;7846;48.830;9.116;2023-02-15T15:06:01;17.90;;;14.77;;
15488;SDS011;7846;48.830;9.116;2023-02-15T15:08:32;16.00;;;14.37;;
15488;SDS011;7846;48.830;9.116;2023-02-15T15:11:36;17.30;;;15.57;;
15488;SDS011;7846;48.830;9.116;2023-02-15T15:13:56;17.70;;;15.20;;
15488;SDS011;7846;48.830;9.116;2023-02-15T15:22:19;18.70;;;15.63;;
15488;SDS011;7846;48.830;9.116;2023-02-15T15:27:37;17.80;;;14.73;;
15488;SDS011;7846;48.830;9.116;2023-02-15T15:32:38;16.50;;;14.90;;
15488;SDS011;7846;48.830;9.116;2023-02-15T15:44:20;18.73;;;16.93;;
15488;SDS011;7846;48.830;9.116;2023-02-15T15:47:26;18.03;;;16.23;;
15488;SDS011;7846;48.830;9.116;2023-02-15T15:50:17;19.23;;;17.27;;
15488;SDS011;7846;48.830;9.116;2023-02-15T15:52:49;19.83;;;17.77;;
15488;SDS011;7846;48.830;9.116;2023-02-15T15:55:18;19.60;;;17.60;;
15488;SDS011;7846;48.830;9.116;2023-02-15T15:57:52;21.07;;;17.90;;
15488;SDS011;7846;48.830;9.116;2023-02-15T16:00:25;20.20;;;18.10;;
15488;SDS011;7846;48.830;9.116;2023-02-15T16:02:57;19.53;;;17.27;;
15488;SDS011;7846;48.830;9.116;2023-02-15T16:05:22;19.90;;;17.87;;
15488;SDS011;7846;48.830;9.116;2023-02-15T16:07:48;21.63;;;18.27;;
15488;SDS011;7846;48.830;9.116;2023-02-15T16:10:25;19.83;;;17.83;;
15488;SDS011;7846;48.830;9.116;2023-02-15T16:12:51;20.07;;;17.87;;
15488;SDS011;7846;48.830;9.116;2023-02-15T16:15:20;24.50;;;18.20;;
15488;SDS011;7846;48.830;9.116;2023-02-15T16:17:52;22.10;;;17.97;;
15488;SDS011;7846;48.830;9.116;2023-02-15T16:20:27;23.17;;;17.17;;
15488;SDS011;7846;48.830;9.116;2023-02-15T16:23:09;21.23;;;17.27;;
15488;SDS011;7846;48.830;9.116;2023-02-15T16:25:56;20.90;;;17.40;;
15488;SDS011;7846;48.830;9.116;2023-02-15T16:28:49;20.87;;;18.40;;
15488;SDS011;7846;48.830;9.116;2023-02-15T16:31:16;20.83;;;18.60;;
15488;SDS011;7846;48.830;9.116;2023-02-15T16:33:43;20.73;;;17.77;;
15488;SDS011;7846;48.830;9.116;2023-02-15T16:36:13;22.57;;;17.97;;
15488;SDS011;7846;48.830;9.116;2023-02-15T16:41:15;20.73;;;18.33;;
15488;SDS011;7846;48.830;9.116;2023-02-15T16:43:43;21.00;;;18.73;;
15488;SDS011;7846;48.830;9.116;2023-02-15T16:46:13;22.77;;;18.17;;
15488;SDS011;7846;48.830;9.116;2023-02-15T16:48:43;21.63;;;18.80;;
15488;SDS011;7846;48.830;9.116;2023-02-15T16:51:17;26.20;;;18.73;;
15488;SDS011;7846;48.830;9.116;2023-02-15T16:53:46;20.67;;;17.83;;
15488;SDS011;7846;48.830;9.116;2023-02-15T16:56:12;23.53;;;18.97;;
15488;SDS011;7846;48.830;9.116;2023-02-15T16:58:45;23.33;;;19.33;;
15488;SDS011;7846;48.830;9.116;2023-02-15T17:01:14;29.00;;;19.50;;
15488;SDS011;7846;48.830;9.116;2023-02-15T17:03:41;23.73;;;19.33;;
15488;SDS011;7846;48.830;9.116;2023-02-15T17:08:46;25.67;;;19.67;;
15488;SDS011;7846;48.830;9.116;2023-02-15T17:11:16;26.93;;;20.40;;
15488;SDS011;7846;48.830;9.116;2023-02-15T17:16:33;33.00;;;23.30;;
15488;SDS011;7846;48.830;9.116;2023-02-15T17:19:01;23.17;;;19.13;;
15488;SDS011;7846;48.830;9.116;2023-02-15T17:21:36;31.50;;;21.03;;
15488;SDS011;7846;48.830;9.116;2023-02-15T17:24:18;24.47;;;19.93;;
15488;SDS011;7846;48.830;9.116;2023-02-15T17:26:53;28.20;;;20.27;;
15488;SDS011;7846;48.830;9.116;2023-02-15T17:29:40;26.00;;;20.70;;
15488;SDS011;7846;48.830;9.116;2023-02-15T17:32:24;26.23;;;20.40;;
15488;SDS011;7846;48.830;9.116;2023-02-15T17:35:08;27.43;;;20.70;;
15488;SDS011;7846;48.830;9.116;2023-02-15T17:37:45;24.73;;;20.30;;
15488;SDS011;7846;48.830;9.116;2023-02-15T17:42:42;25.03;;;19.83;;
15488;SDS011;7846;48.830;9.116;2023-02-15T17:45:08;23.23;;;20.07;;
15488;SDS011;7846;48.830;9.116;2023-02-15T17:47:33;28.87;;;23.63;;